Time,TemperatureF,DewpointF,PressureIn,WindDirection,WindDirectionDegrees,WindSpeedMPH,WindSpeedGustMPH,Humidity,HourlyPrecipIn,Conditions,Clouds,dailyrainin,SoftwareType,DateUTC
2013-02-25 00:03:00,59.7,56.1,29.56,North,0,0.0,0.0,88,0.00,,,0.00,WUHU216HW,2013-02-25 06:03:00,
2013-02-25 00:08:00,59.7,56.1,29.56,North,0,0.0,0.0,88,0.00,,,0.00,WUHU216HW,2013-02-25 06:08:00,
2013-02-25 00:13:00,59.5,56.0,29.55,North,0,0.0,0.0,88,0.00,,,0.00,WUHU216HW,2013-02-25 06:13:00,
2013-02-25 00:18:00,59.5,56.0,29.55,North,0,0.0,0.0,89,0.00,,,0.00,WUHU216HW,2013-02-25 06:18:00,
2013-02-25 00:23:00,59.3,56.1,29.55,North,0,0.0,0.0,89,0.00,,,0.00,WUHU216HW,2013-02-25 06:23:00,
2013-02-25 00:28:00,59.3,56.1,29.55,North,0,0.0,0.0,89,0.00,,,0.00,WUHU216HW,2013-02-25 06:28:00,
2013-02-25 00:33:00,59.1,55.9,29.55,North,0,0.0,0.0,89,0.00,,,0.00,WUHU216HW,2013-02-25 06:33:00,
2013-02-25 00:38:00,59.1,55.9,29.55,North,0,0.0,0.0,89,0.00,,,0.00,WUHU216HW,2013-02-25 06:38:00,
2013-02-25 00:43:00,59.1,55.9,29.55,North,0,0.0,0.0,89,0.00,,,0.00,WUHU216HW,2013-02-25 06:43:00,
2013-02-25 00:48:00,59.0,56.1,29.54,North,0,0.0,0.0,90,0.00,,,0.00,WUHU216HW,2013-02-25 06:48:00,
2013-02-25 00:53:00,59.0,56.1,29.54,North,0,0.0,0.0,90,0.00,,,0.00,WUHU216HW,2013-02-25 06:53:00,
2013-02-25 00:58:00,59.0,56.1,29.53,North,0,0.0,0.0,90,0.00,,,0.00,WUHU216HW,2013-02-25 06:58:00,
2013-02-25 01:03:00,59.0,56.1,29.53,North,0,0.0,0.0,90,0.00,,,0.00,WUHU216HW,2013-02-25 07:03:00,
2013-02-25 01:08:00,59.0,56.1,29.52,North,0,0.0,0.0,90,0.00,,,0.00,WUHU216HW,2013-02-25 07:08:00,
2013-02-25 01:13:00,59.0,56.1,29.53,North,0,0.0,0.0,90,0.00,,,0.00,WUHU216HW,2013-02-25 07:13:00,
2013-02-25 01:18:00,59.0,56.1,29.52,North,0,0.0,0.0,90,0.00,,,0.00,WUHU216HW,2013-02-25 07:18:00,
2013-02-25 01:23:00,59.0,56.1,29.52,North,0,0.0,0.0,90,0.00,,,0.00,WUHU216HW,2013-02-25 07:23:00,
2013-02-25 01:28:00,59.0,56.1,29.52,North,0,0.0,0.0,90,0.00,,,0.00,WUHU216HW,2013-02-25 07:28:00,
2013-02-25 01:33:00,59.0,56.1,29.52,North,0,0.0,0.0,90,0.00,,,0.00,WUHU216HW,2013-02-25 07:33:00,
2013-02-25 01:38:00,59.0,56.1,29.52,North,0,0.0,0.0,90,0.00,,,0.00,WUHU216HW,2013-02-25 07:38:00,
2013-02-25 01:43:00,59.0,56.1,29.52,North,0,0.0,0.0,90,0.00,,,0.00,WUHU216HW,2013-02-25 07:43:00,
2013-02-25 01:48:00,59.0,56.1,29.53,North,0,0.0,0.0,90,0.00,,,0.00,WUHU216HW,2013-02-25 07:48:00,
2013-02-25 01:53:00,59.0,56.1,29.53,North,0,0.0,0.0,90,0.00,,,0.00,WUHU216HW,2013-02-25 07:53:00,
2013-02-25 01:58:00,59.0,56.1,29.52,North,0,0.0,0.0,90,0.00,,,0.00,WUHU216HW,2013-02-25 07:58:00,
2013-02-25 02:03:00,59.0,56.1,29.51,North,0,0.0,0.0,90,0.00,,,0.00,WUHU216HW,2013-02-25 08:03:00,
2013-02-25 02:08:00,59.0,56.1,29.52,North,0,0.0,0.0,90,0.00,,,0.00,WUHU216HW,2013-02-25 08:08:00,
2013-02-25 02:13:00,59.0,56.1,29.52,North,0,0.0,0.0,90,0.00,,,0.00,WUHU216HW,2013-02-25 08:13:00,
2013-02-25 02:18:00,59.0,56.1,29.52,North,0,0.0,0.0,90,0.00,,,0.00,WUHU216HW,2013-02-25 08:18:00,
2013-02-25 02:25:00,59.0,56.1,29.54,North,0,0.0,0.0,90,0.00,,,0.00,WUHU216HW,2013-02-25 08:25:00,
2013-02-25 02:30:00,59.0,56.1,29.55,North,0,0.0,0.0,90,0.00,,,0.00,WUHU216HW,2013-02-25 08:30:00,
2013-02-25 02:35:00,59.0,56.1,29.55,North,0,0.0,0.0,90,0.00,,,0.00,WUHU216HW,2013-02-25 08:35:00,
2013-02-25 02:40:00,59.0,56.1,29.55,North,0,0.0,0.0,90,0.00,,,0.00,WUHU216HW,2013-02-25 08:40:00,
2013-02-25 02:45:00,59.0,56.1,29.55,North,0,0.0,0.0,90,0.00,,,0.00,WUHU216HW,2013-02-25 08:45:00,
2013-02-25 02:50:00,59.0,56.1,29.56,North,0,0.0,0.0,90,0.00,,,0.00,WUHU216HW,2013-02-25 08:50:00,
2013-02-25 02:55:00,59.0,56.1,29.55,North,0,0.0,0.0,90,0.00,,,0.00,WUHU216HW,2013-02-25 08:55:00,
2013-02-25 03:00:00,59.1,56.3,29.56,North,0,0.0,0.0,90,0.00,,,0.00,WUHU216HW,2013-02-25 09:00:00,
2013-02-25 03:05:00,59.1,56.3,29.57,North,0,0.0,0.0,90,0.00,,,0.00,WUHU216HW,2013-02-25 09:05:00,
2013-02-25 03:10:00,59.1,56.3,29.58,North,0,0.0,0.0,90,0.00,,,0.00,WUHU216HW,2013-02-25 09:10:00,
2013-02-25 03:15:00,59.3,56.4,29.59,North,0,0.0,0.0,90,0.00,,,0.00,WUHU216HW,2013-02-25 09:15:00,
2013-02-25 03:20:00,59.5,56.6,29.59,North,0,0.0,0.0,90,0.00,,,0.00,WUHU216HW,2013-02-25 09:20:00,
2013-02-25 03:25:00,59.7,56.8,29.60,North,0,0.0,0.0,90,0.00,,,0.00,WUHU216HW,2013-02-25 09:25:00,
2013-02-25 03:30:00,59.7,56.8,29.59,North,0,0.0,0.0,90,0.00,,,0.00,WUHU216HW,2013-02-25 09:30:00,
2013-02-25 03:35:00,59.7,56.8,29.59,North,0,0.0,0.0,90,0.00,,,0.00,WUHU216HW,2013-02-25 09:35:00,
2013-02-25 03:40:00,59.9,57.0,29.59,North,0,0.0,0.0,90,0.00,,,0.00,WUHU216HW,2013-02-25 09:40:00,
2013-02-25 03:45:00,59.9,57.0,29.56,North,0,0.0,0.0,90,0.00,,,0.00,WUHU216HW,2013-02-25 09:45:00,
2013-02-25 03:50:00,59.7,56.8,29.55,North,0,0.0,0.0,90,0.00,,,0.00,WUHU216HW,2013-02-25 09:50:00,
2013-02-25 03:55:00,59.7,56.8,29.55,North,0,0.0,0.0,90,0.00,,,0.00,WUHU216HW,2013-02-25 09:55:00,
2013-02-25 04:00:00,59.9,57.0,29.56,North,0,0.0,0.0,90,0.00,,,0.00,WUHU216HW,2013-02-25 10:00:00,
2013-02-25 04:06:00,59.9,57.0,29.56,North,0,0.0,0.0,90,0.00,,,0.00,WUHU216HW,2013-02-25 10:06:00,
2013-02-25 04:11:00,59.9,57.0,29.56,North,0,0.0,0.0,90,0.00,,,0.00,WUHU216HW,2013-02-25 10:11:00,
2013-02-25 04:16:00,59.9,57.0,29.56,North,0,0.0,0.0,90,0.00,,,0.00,WUHU216HW,2013-02-25 10:16:00,
2013-02-25 04:21:00,59.9,57.0,29.56,North,0,0.0,0.0,90,0.00,,,0.00,WUHU216HW,2013-02-25 10:21:00,
2013-02-25 04:26:00,60.0,57.2,29.56,North,0,0.0,0.0,90,0.00,,,0.00,WUHU216HW,2013-02-25 10:26:00,
2013-02-25 04:31:00,60.0,57.2,29.57,North,0,0.0,0.0,90,0.00,,,0.00,WUHU216HW,2013-02-25 10:31:00,
2013-02-25 04:36:00,60.0,57.2,29.57,North,0,0.0,0.0,90,0.00,,,0.00,WUHU216HW,2013-02-25 10:36:00,
2013-02-25 04:43:00,56.6,45.7,29.59,North,0,0.0,0.0,67,0.00,,,0.00,WUHU216HW,2013-02-25 10:43:00,
2013-02-25 04:48:00,56.6,45.7,29.59,North,0,0.0,0.0,67,0.00,,,0.00,WUHU216HW,2013-02-25 10:48:00,
2013-02-25 04:56:00,53.0,46.7,29.60,North,0,0.0,0.0,79,0.00,,,0.00,WUHU216HW,2013-02-25 10:56:00,
2013-02-25 05:01:00,52.5,46.2,29.60,North,0,0.0,0.0,78,0.00,,,0.00,WUHU216HW,2013-02-25 11:01:00,
2013-02-25 05:06:00,52.3,45.7,29.60,North,0,0.0,0.0,79,0.00,,,0.00,WUHU216HW,2013-02-25 11:06:00,
2013-02-25 05:11:00,51.9,45.6,29.60,North,0,0.0,0.0,79,0.00,,,0.00,WUHU216HW,2013-02-25 11:11:00,
2013-02-25 05:16:00,51.9,45.6,29.61,North,0,0.0,0.0,79,0.00,,,0.00,WUHU216HW,2013-02-25 11:16:00,
2013-02-25 05:21:00,51.6,45.3,29.61,North,0,0.0,0.0,79,0.00,,,0.00,WUHU216HW,2013-02-25 11:21:00,
2013-02-25 05:26:00,51.4,45.1,29.61,North,0,0.0,0.0,79,0.00,,,0.00,WUHU216HW,2013-02-25 11:26:00,
2013-02-25 05:31:00,51.4,45.1,29.61,North,0,0.0,0.0,80,0.00,,,0.00,WUHU216HW,2013-02-25 11:31:00,
2013-02-25 05:36:00,50.9,44.9,29.60,North,0,0.0,0.0,80,0.00,,,0.00,WUHU216HW,2013-02-25 11:36:00,
2013-02-25 05:41:00,50.7,44.7,29.61,North,0,0.0,0.0,80,0.00,,,0.00,WUHU216HW,2013-02-25 11:41:00,
2013-02-25 05:46:00,50.9,44.6,29.61,North,0,0.0,0.0,79,0.00,,,0.00,WUHU216HW,2013-02-25 11:46:00,
2013-02-25 05:51:00,51.0,44.8,29.61,North,0,0.0,0.0,79,0.00,,,0.00,WUHU216HW,2013-02-25 11:51:00,
2013-02-25 05:56:00,51.4,44.4,29.61,North,0,0.0,0.0,77,0.00,,,0.00,WUHU216HW,2013-02-25 11:56:00,
2013-02-25 06:01:00,51.4,44.4,29.61,North,0,0.0,0.0,76,0.00,,,0.00,WUHU216HW,2013-02-25 12:01:00,
2013-02-25 06:06:00,51.6,43.9,29.61,North,0,0.0,0.0,74,0.00,,,0.00,WUHU216HW,2013-02-25 12:06:00,
2013-02-25 06:11:00,51.9,42.9,29.61,North,0,0.0,0.0,70,0.00,,,0.00,WUHU216HW,2013-02-25 12:11:00,
2013-02-25 06:16:00,52.1,42.7,29.61,North,0,0.0,0.0,69,0.00,,,0.00,WUHU216HW,2013-02-25 12:16:00,
2013-02-25 06:21:00,52.1,42.7,29.62,North,0,0.0,0.0,67,0.00,,,0.00,WUHU216HW,2013-02-25 12:21:00,
2013-02-25 06:26:00,51.9,41.3,29.62,North,0,0.0,0.0,66,0.00,,,0.00,WUHU216HW,2013-02-25 12:26:00,
2013-02-25 06:31:00,51.6,41.0,29.62,North,0,0.0,0.0,67,0.00,,,0.00,WUHU216HW,2013-02-25 12:31:00,
2013-02-25 06:36:00,51.6,41.0,29.62,North,0,0.0,0.0,66,0.00,,,0.00,WUHU216HW,2013-02-25 12:36:00,
2013-02-25 06:41:00,51.8,39.5,29.62,North,0,0.0,0.0,63,0.00,,,0.00,WUHU216HW,2013-02-25 12:41:00,
2013-02-25 06:46:00,52.3,39.2,29.63,North,0,0.0,0.0,61,0.00,,,0.00,WUHU216HW,2013-02-25 12:46:00,
2013-02-25 06:51:00,52.5,39.0,29.63,North,0,0.0,0.0,61,0.00,,,0.00,WUHU216HW,2013-02-25 12:51:00,
2013-02-25 06:56:00,52.5,39.0,29.63,North,0,0.0,0.0,59,0.00,,,0.00,WUHU216HW,2013-02-25 12:56:00,
2013-02-25 07:01:00,52.3,37.9,29.63,North,0,0.0,0.0,58,0.00,,,0.00,WUHU216HW,2013-02-25 13:01:00,
2013-02-25 07:06:00,52.1,37.3,29.63,North,0,0.0,0.0,57,0.00,,,0.00,WUHU216HW,2013-02-25 13:06:00,
2013-02-25 07:11:00,51.9,36.6,29.63,North,0,0.0,0.0,56,0.00,,,0.00,WUHU216HW,2013-02-25 13:11:00,
2013-02-25 07:16:00,51.8,36.5,29.64,North,0,0.0,0.0,56,0.00,,,0.00,WUHU216HW,2013-02-25 13:16:00,
2013-02-25 07:21:00,51.6,35.8,29.64,North,0,0.0,0.0,55,0.00,,,0.00,WUHU216HW,2013-02-25 13:21:00,
2013-02-25 07:26:00,51.9,34.4,29.63,North,0,0.0,0.0,51,0.00,,,0.00,WUHU216HW,2013-02-25 13:26:00,
2013-02-25 07:31:00,51.9,34.4,29.64,North,0,0.0,0.0,51,0.00,,,0.00,WUHU216HW,2013-02-25 13:31:00,
2013-02-25 07:36:00,51.9,34.4,29.64,North,0,0.0,0.0,51,0.00,,,0.00,WUHU216HW,2013-02-25 13:36:00,
2013-02-25 07:41:00,51.4,34.3,29.64,North,0,0.0,0.0,52,0.00,,,0.00,WUHU216HW,2013-02-25 13:41:00,
2013-02-25 07:46:00,51.4,34.3,29.65,North,0,0.0,0.0,53,0.00,,,0.00,WUHU216HW,2013-02-25 13:46:00,
2013-02-25 07:51:00,51.4,34.3,29.65,North,0,0.0,0.0,54,0.00,,,0.00,WUHU216HW,2013-02-25 13:51:00,
2013-02-25 07:56:00,51.4,34.3,29.65,North,0,0.0,0.0,53,0.00,,,0.00,WUHU216HW,2013-02-25 13:56:00,
2013-02-25 08:02:00,51.9,33.4,29.64,North,0,0.0,0.0,49,0.00,,,0.00,WUHU216HW,2013-02-25 14:02:00,
2013-02-25 08:07:00,52.5,34.4,29.65,North,0,0.0,0.0,50,0.00,,,0.00,WUHU216HW,2013-02-25 14:07:00,
2013-02-25 08:13:00,53.4,34.7,29.65,North,0,0.0,0.0,49,0.00,,,0.00,WUHU216HW,2013-02-25 14:13:00,
2013-02-25 08:18:00,53.7,33.9,29.65,North,0,0.0,0.0,45,0.00,,,0.00,WUHU216HW,2013-02-25 14:18:00,
2013-02-25 08:23:00,54.1,33.1,29.65,North,0,0.0,0.0,45,0.00,,,0.00,WUHU216HW,2013-02-25 14:23:00,
2013-02-25 08:28:00,54.3,32.7,29.65,North,0,0.0,0.0,44,0.00,,,0.00,WUHU216HW,2013-02-25 14:28:00,
2013-02-25 08:33:00,54.3,32.7,29.64,North,0,0.0,0.0,44,0.00,,,0.00,WUHU216HW,2013-02-25 14:33:00,
2013-02-25 08:38:00,54.3,32.7,29.64,North,0,0.0,0.0,44,0.00,,,0.00,WUHU216HW,2013-02-25 14:38:00,
2013-02-25 08:43:00,54.3,32.7,29.65,North,0,0.0,0.0,42,0.00,,,0.00,WUHU216HW,2013-02-25 14:43:00,
2013-02-25 08:48:00,54.5,31.7,29.65,North,0,0.0,0.0,42,0.00,,,0.00,WUHU216HW,2013-02-25 14:48:00,
2013-02-25 08:53:00,54.6,31.9,29.65,North,0,0.0,0.0,40,0.00,,,0.00,WUHU216HW,2013-02-25 14:53:00,
2013-02-25 08:58:00,54.8,30.9,29.64,North,0,0.0,0.0,40,0.00,,,0.00,WUHU216HW,2013-02-25 14:58:00,
2013-02-25 09:03:00,55.2,29.8,29.65,North,0,0.0,0.0,38,0.00,,,0.00,WUHU216HW,2013-02-25 15:03:00,
2013-02-25 09:08:00,55.2,29.8,29.65,North,0,0.0,0.0,37,0.00,,,0.00,WUHU216HW,2013-02-25 15:08:00,
2013-02-25 09:13:00,55.5,29.5,29.65,North,0,0.0,0.0,37,0.00,,,0.00,WUHU216HW,2013-02-25 15:13:00,
2013-02-25 09:18:00,55.7,28.9,29.65,North,0,0.0,0.0,36,0.00,,,0.00,WUHU216HW,2013-02-25 15:18:00,
2013-02-25 09:23:00,55.9,28.4,29.65,North,0,0.0,0.0,35,0.00,,,0.00,WUHU216HW,2013-02-25 15:23:00,
2013-02-25 09:28:00,55.9,28.4,29.65,North,0,0.0,0.0,32,0.00,,,0.00,WUHU216HW,2013-02-25 15:28:00,
2013-02-25 09:33:00,56.1,26.4,29.64,North,0,0.0,0.0,32,0.00,,,0.00,WUHU216HW,2013-02-25 15:33:00,
2013-02-25 09:38:00,56.4,26.8,29.64,North,0,0.0,0.0,32,0.00,,,0.00,WUHU216HW,2013-02-25 15:38:00,
2013-02-25 09:43:00,56.8,27.1,29.65,North,0,0.0,0.0,31,0.00,,,0.00,WUHU216HW,2013-02-25 15:43:00,
2013-02-25 09:48:00,57.3,26.2,29.65,North,0,0.0,0.0,30,0.00,,,0.00,WUHU216HW,2013-02-25 15:48:00,
2013-02-25 09:53:00,57.5,26.3,29.65,North,0,0.0,0.0,29,0.00,,,0.00,WUHU216HW,2013-02-25 15:53:00,
2013-02-25 09:58:00,57.7,25.5,29.65,North,0,0.0,0.0,29,0.00,,,0.00,WUHU216HW,2013-02-25 15:58:00,
2013-02-25 10:03:00,57.7,25.5,29.65,North,0,0.0,0.0,27,0.00,,,0.00,WUHU216HW,2013-02-25 16:03:00,
2013-02-25 10:08:00,58.2,25.1,29.65,North,0,0.0,0.0,28,0.00,,,0.00,WUHU216HW,2013-02-25 16:08:00,
2013-02-25 10:13:00,57.7,23.6,29.65,North,0,0.0,0.0,27,0.00,,,0.00,WUHU216HW,2013-02-25 16:13:00,
2013-02-25 10:18:00,59.0,23.7,29.66,North,0,0.0,0.0,26,0.00,,,0.00,WUHU216HW,2013-02-25 16:18:00,
2013-02-25 10:23:00,58.2,22.2,29.65,North,0,0.0,0.0,25,0.00,,,0.00,WUHU216HW,2013-02-25 16:23:00,
2013-02-25 10:28:00,58.6,23.4,29.65,North,0,0.0,0.0,26,0.00,,,0.00,WUHU216HW,2013-02-25 16:28:00,
2013-02-25 10:33:00,59.3,22.1,29.65,North,0,0.0,0.0,24,0.00,,,0.00,WUHU216HW,2013-02-25 16:33:00,
2013-02-25 10:39:00,59.0,22.8,29.65,North,0,0.0,0.0,25,0.00,,,0.00,WUHU216HW,2013-02-25 16:39:00,
2013-02-25 10:44:00,59.0,22.8,29.65,North,0,0.0,0.0,25,0.00,,,0.00,WUHU216HW,2013-02-25 16:44:00,
2013-02-25 10:49:00,59.1,22.9,29.65,North,0,0.0,0.0,25,0.00,,,0.00,WUHU216HW,2013-02-25 16:49:00,
2013-02-25 10:54:00,59.9,23.5,29.65,North,0,0.0,0.0,25,0.00,,,0.00,WUHU216HW,2013-02-25 16:54:00,
2013-02-25 10:59:00,59.5,23.2,29.65,North,0,0.0,0.0,25,0.00,,,0.00,WUHU216HW,2013-02-25 16:59:00,
2013-02-25 11:04:00,59.5,23.2,29.65,North,0,0.0,0.0,25,0.00,,,0.00,WUHU216HW,2013-02-25 17:04:00,
2013-02-25 11:09:00,59.0,22.8,29.66,North,0,0.0,0.0,26,0.00,,,0.00,WUHU216HW,2013-02-25 17:09:00,
2013-02-25 11:14:00,59.0,22.8,29.65,North,0,0.0,0.0,26,0.00,,,0.00,WUHU216HW,2013-02-25 17:14:00,
2013-02-25 11:19:00,59.0,22.8,29.64,North,0,0.0,0.0,26,0.00,,,0.00,WUHU216HW,2013-02-25 17:19:00,
2013-02-25 11:24:00,59.3,24.0,29.66,North,0,0.0,0.0,26,0.00,,,0.00,WUHU216HW,2013-02-25 17:24:00,
2013-02-25 11:29:00,60.4,24.0,29.65,North,0,0.0,0.0,25,0.00,,,0.00,WUHU216HW,2013-02-25 17:29:00,
2013-02-25 11:34:00,59.7,24.3,29.66,North,0,0.0,0.0,26,0.00,,,0.00,WUHU216HW,2013-02-25 17:34:00,
2013-02-25 11:39:00,59.7,24.3,29.66,North,0,0.0,0.0,26,0.00,,,0.00,WUHU216HW,2013-02-25 17:39:00,
2013-02-25 11:44:00,59.7,24.3,29.66,North,0,0.0,0.0,26,0.00,,,0.00,WUHU216HW,2013-02-25 17:44:00,
2013-02-25 11:49:00,59.5,27.1,29.66,North,0,0.0,0.0,29,0.00,,,0.00,WUHU216HW,2013-02-25 17:49:00,
2013-02-25 11:54:00,59.5,27.1,29.65,North,0,0.0,0.0,29,0.00,,,0.00,WUHU216HW,2013-02-25 17:54:00,
2013-02-25 11:59:00,59.5,27.1,29.65,North,0,0.0,0.0,29,0.00,,,0.00,WUHU216HW,2013-02-25 17:59:00,
2013-02-25 12:04:00,60.4,28.8,29.64,North,0,0.0,0.0,30,0.00,,,0.00,WUHU216HW,2013-02-25 18:04:00,
2013-02-25 12:09:00,60.2,29.4,29.65,North,0,0.0,0.0,31,0.00,,,0.00,WUHU216HW,2013-02-25 18:09:00,
2013-02-25 12:14:00,59.9,29.1,29.66,North,0,0.0,0.0,31,0.00,,,0.00,WUHU216HW,2013-02-25 18:14:00,
2013-02-25 12:19:00,60.2,29.4,29.65,North,0,0.0,0.0,31,0.00,,,0.00,WUHU216HW,2013-02-25 18:19:00,
2013-02-25 12:24:00,60.4,29.5,29.65,North,0,0.0,0.0,31,0.00,,,0.00,WUHU216HW,2013-02-25 18:24:00,
2013-02-25 12:29:00,60.4,29.5,29.65,North,0,0.0,0.0,33,0.00,,,0.00,WUHU216HW,2013-02-25 18:29:00,
2013-02-25 12:34:00,60.4,29.5,29.65,North,0,0.0,0.0,33,0.00,,,0.00,WUHU216HW,2013-02-25 18:34:00,
2013-02-25 12:39:00,60.4,29.5,29.64,North,0,0.0,0.0,33,0.00,,,0.00,WUHU216HW,2013-02-25 18:39:00,
2013-02-25 12:44:00,60.4,29.5,29.65,North,0,0.0,0.0,33,0.00,,,0.00,WUHU216HW,2013-02-25 18:44:00,
2013-02-25 12:49:00,60.4,29.5,29.65,North,0,0.0,0.0,33,0.00,,,0.00,WUHU216HW,2013-02-25 18:49:00,
2013-02-25 12:54:00,60.4,29.5,29.65,North,0,0.0,0.0,34,0.00,,,0.00,WUHU216HW,2013-02-25 18:54:00,
2013-02-25 12:59:00,57.9,30.9,29.65,North,0,0.0,0.0,36,0.00,,,0.00,WUHU216HW,2013-02-25 18:59:00,
2013-02-25 13:04:00,59.1,32.0,29.64,North,0,0.0,0.0,36,0.00,,,0.00,WUHU216HW,2013-02-25 19:04:00,
2013-02-25 13:09:00,59.3,32.2,29.65,North,0,0.0,0.0,36,0.00,,,0.00,WUHU216HW,2013-02-25 19:09:00,
2013-02-25 13:14:00,59.3,32.2,29.65,North,0,0.0,0.0,36,0.00,,,0.00,WUHU216HW,2013-02-25 19:14:00,
2013-02-25 13:19:00,59.3,32.2,29.66,North,0,0.0,0.0,38,0.00,,,0.00,WUHU216HW,2013-02-25 19:19:00,
2013-02-25 13:24:00,59.3,32.2,29.66,North,0,0.0,0.0,38,0.00,,,0.00,WUHU216HW,2013-02-25 19:24:00,
2013-02-25 13:29:00,56.8,29.2,29.66,North,0,0.0,0.0,35,0.00,,,0.00,WUHU216HW,2013-02-25 19:29:00,
2013-02-25 13:34:00,56.8,27.8,29.66,North,0,0.0,0.0,33,0.00,,,0.00,WUHU216HW,2013-02-25 19:34:00,
2013-02-25 13:39:00,56.8,27.8,29.66,North,0,0.0,0.0,33,0.00,,,0.00,WUHU216HW,2013-02-25 19:39:00,
2013-02-25 13:44:00,56.1,28.6,29.66,North,0,0.0,0.0,35,0.00,,,0.00,WUHU216HW,2013-02-25 19:44:00,
2013-02-25 13:49:00,55.5,28.1,29.66,North,0,0.0,0.0,35,0.00,,,0.00,WUHU216HW,2013-02-25 19:49:00,
2013-02-25 13:54:00,55.5,28.1,29.66,North,0,0.0,0.0,35,0.00,,,0.00,WUHU216HW,2013-02-25 19:54:00,
2013-02-25 13:59:00,55.5,28.1,29.66,North,0,0.0,0.0,35,0.00,,,0.00,WUHU216HW,2013-02-25 19:59:00,
2013-02-25 14:04:00,55.5,28.1,29.65,North,0,0.0,0.0,34,0.00,,,0.00,WUHU216HW,2013-02-25 20:04:00,
2013-02-25 14:09:00,55.2,27.0,29.66,North,0,0.0,0.0,34,0.00,,,0.00,WUHU216HW,2013-02-25 20:09:00,
2013-02-25 14:14:00,55.0,27.6,29.65,North,0,0.0,0.0,35,0.00,,,0.00,WUHU216HW,2013-02-25 20:14:00,
2013-02-25 14:19:00,55.0,27.6,29.66,North,0,0.0,0.0,35,0.00,,,0.00,WUHU216HW,2013-02-25 20:19:00,
2013-02-25 14:24:00,55.2,27.7,29.66,North,0,0.0,0.0,35,0.00,,,0.00,WUHU216HW,2013-02-25 20:24:00,
2013-02-25 14:29:00,56.1,27.1,29.66,North,0,0.0,0.0,33,0.00,,,0.00,WUHU216HW,2013-02-25 20:29:00,
2013-02-25 14:34:00,56.1,27.1,29.66,North,0,0.0,0.0,33,0.00,,,0.00,WUHU216HW,2013-02-25 20:34:00,
2013-02-25 14:39:00,55.7,27.5,29.66,North,0,0.0,0.0,34,0.00,,,0.00,WUHU216HW,2013-02-25 20:39:00,
2013-02-25 14:44:00,56.1,27.8,29.65,North,0,0.0,0.0,34,0.00,,,0.00,WUHU216HW,2013-02-25 20:44:00,
2013-02-25 14:49:00,56.1,27.1,29.65,North,0,0.0,0.0,33,0.00,,,0.00,WUHU216HW,2013-02-25 20:49:00,
2013-02-25 14:57:00,54.3,27.7,29.66,North,0,0.0,0.0,36,0.00,,,0.00,WUHU216HW,2013-02-25 20:57:00,
2013-02-25 15:02:00,54.5,27.8,29.66,North,0,0.0,0.0,36,0.00,,,0.00,WUHU216HW,2013-02-25 21:02:00,
2013-02-25 15:07:00,54.5,27.8,29.66,North,0,0.0,0.0,34,0.00,,,0.00,WUHU216HW,2013-02-25 21:07:00,
2013-02-25 15:12:00,53.4,25.5,29.66,North,0,0.0,0.0,34,0.00,,,0.00,WUHU216HW,2013-02-25 21:12:00,
2013-02-25 15:17:00,53.6,27.7,29.66,North,0,0.0,0.0,37,0.00,,,0.00,WUHU216HW,2013-02-25 21:17:00,
2013-02-25 15:22:00,53.6,27.7,29.66,North,0,0.0,0.0,37,0.00,,,0.00,WUHU216HW,2013-02-25 21:22:00,
2013-02-25 15:27:00,53.6,27.7,29.66,North,0,0.0,0.0,37,0.00,,,0.00,WUHU216HW,2013-02-25 21:27:00,
2013-02-25 15:32:00,53.7,28.6,29.66,North,0,0.0,0.0,38,0.00,,,0.00,WUHU216HW,2013-02-25 21:32:00,
2013-02-25 15:37:00,53.4,28.3,29.66,North,0,0.0,0.0,38,0.00,,,0.00,WUHU216HW,2013-02-25 21:37:00,
2013-02-25 15:42:00,51.9,28.3,29.66,North,0,0.0,0.0,40,0.00,,,0.00,WUHU216HW,2013-02-25 21:42:00,
2013-02-25 15:47:00,52.8,29.1,29.66,North,0,0.0,0.0,40,0.00,,,0.00,WUHU216HW,2013-02-25 21:47:00,
2013-02-25 15:52:00,52.1,28.5,29.66,North,0,0.0,0.0,40,0.00,,,0.00,WUHU216HW,2013-02-25 21:52:00,
2013-02-25 15:57:00,51.6,28.0,29.66,North,0,0.0,0.0,39,0.00,,,0.00,WUHU216HW,2013-02-25 21:57:00,
2013-02-25 16:02:00,52.8,28.5,29.66,North,0,0.0,0.0,39,0.00,,,0.00,WUHU216HW,2013-02-25 22:02:00,
2013-02-25 16:07:00,52.3,28.0,29.67,North,0,0.0,0.0,39,0.00,,,0.00,WUHU216HW,2013-02-25 22:07:00,
2013-02-25 16:12:00,52.1,27.8,29.68,North,0,0.0,0.0,39,0.00,,,0.00,WUHU216HW,2013-02-25 22:12:00,
2013-02-25 16:17:00,52.5,28.1,29.68,North,0,0.0,0.0,39,0.00,,,0.00,WUHU216HW,2013-02-25 22:17:00,
2013-02-25 16:22:00,52.3,29.2,29.68,North,0,0.0,0.0,41,0.00,,,0.00,WUHU216HW,2013-02-25 22:22:00,
2013-02-25 16:27:00,52.3,29.2,29.69,North,0,0.0,0.0,43,0.00,,,0.00,WUHU216HW,2013-02-25 22:27:00,
2013-02-25 16:32:00,50.1,28.9,29.69,North,0,0.0,0.0,44,0.00,,,0.00,WUHU216HW,2013-02-25 22:32:00,
2013-02-25 16:37:00,50.0,28.2,29.69,North,0,0.0,0.0,43,0.00,,,0.00,WUHU216HW,2013-02-25 22:37:00,
2013-02-25 16:42:00,49.4,28.3,29.69,North,0,0.0,0.0,44,0.00,,,0.00,WUHU216HW,2013-02-25 22:42:00,
2013-02-25 16:47:00,49.4,28.3,29.69,North,0,0.0,0.0,44,0.00,,,0.00,WUHU216HW,2013-02-25 22:47:00,
2013-02-25 16:52:00,48.9,28.3,29.69,North,0,0.0,0.0,45,0.00,,,0.00,WUHU216HW,2013-02-25 22:52:00,
2013-02-25 16:57:00,49.1,28.5,29.69,North,0,0.0,0.0,45,0.00,,,0.00,WUHU216HW,2013-02-25 22:57:00,
2013-02-25 17:02:00,48.5,28.0,29.69,North,0,0.0,0.0,45,0.00,,,0.00,WUHU216HW,2013-02-25 23:02:00,
2013-02-25 17:07:00,48.7,28.1,29.70,North,0,0.0,0.0,45,0.00,,,0.00,WUHU216HW,2013-02-25 23:07:00,
2013-02-25 17:12:00,48.3,27.8,29.71,North,0,0.0,0.0,45,0.00,,,0.00,WUHU216HW,2013-02-25 23:12:00,
2013-02-25 17:17:00,47.6,27.7,29.71,North,0,0.0,0.0,46,0.00,,,0.00,WUHU216HW,2013-02-25 23:17:00,
2013-02-25 17:22:00,47.6,27.7,29.70,North,0,0.0,0.0,46,0.00,,,0.00,WUHU216HW,2013-02-25 23:22:00,
2013-02-25 17:27:00,47.3,28.4,29.70,North,0,0.0,0.0,48,0.00,,,0.00,WUHU216HW,2013-02-25 23:27:00,
2013-02-25 17:32:00,47.1,28.3,29.70,North,0,0.0,0.0,48,0.00,,,0.00,WUHU216HW,2013-02-25 23:32:00,
2013-02-25 17:37:00,46.9,28.7,29.70,North,0,0.0,0.0,49,0.00,,,0.00,WUHU216HW,2013-02-25 23:37:00,
2013-02-25 17:42:00,46.7,28.5,29.70,North,0,0.0,0.0,49,0.00,,,0.00,WUHU216HW,2013-02-25 23:42:00,
2013-02-25 17:47:00,46.5,28.9,29.70,North,0,0.0,0.0,49,0.00,,,0.00,WUHU216HW,2013-02-25 23:47:00,
2013-02-25 17:52:00,46.5,28.9,29.71,North,0,0.0,0.0,50,0.00,,,0.00,WUHU216HW,2013-02-25 23:52:00,
2013-02-25 17:57:00,46.5,28.9,29.71,North,0,0.0,0.0,50,0.00,,,0.00,WUHU216HW,2013-02-25 23:57:00,
2013-02-25 18:02:00,46.2,28.6,29.72,North,0,0.0,0.0,50,0.00,,,0.00,WUHU216HW,2013-02-26 00:02:00,
2013-02-25 18:07:00,45.8,28.7,29.72,North,0,0.0,0.0,51,0.00,,,0.00,WUHU216HW,2013-02-26 00:07:00,
2013-02-25 18:12:00,45.6,28.5,29.72,North,0,0.0,0.0,51,0.00,,,0.00,WUHU216HW,2013-02-26 00:12:00,
2013-02-25 18:17:00,45.6,28.5,29.73,North,0,0.0,0.0,51,0.00,,,0.00,WUHU216HW,2013-02-26 00:17:00,
2013-02-25 18:22:00,45.5,28.8,29.73,North,0,0.0,0.0,52,0.00,,,0.00,WUHU216HW,2013-02-26 00:22:00,
2013-02-25 18:27:00,45.6,29.0,29.73,North,0,0.0,0.0,52,0.00,,,0.00,WUHU216HW,2013-02-26 00:27:00,
2013-02-25 18:32:00,45.5,28.8,29.73,North,0,0.0,0.0,52,0.00,,,0.00,WUHU216HW,2013-02-26 00:32:00,
2013-02-25 18:38:00,45.3,28.6,29.73,North,0,0.0,0.0,53,0.00,,,0.00,WUHU216HW,2013-02-26 00:38:00,
2013-02-25 18:43:00,45.3,28.6,29.74,North,0,0.0,0.0,53,0.00,,,0.00,WUHU216HW,2013-02-26 00:43:00,
2013-02-25 18:48:00,45.3,28.6,29.74,North,0,0.0,0.0,54,0.00,,,0.00,WUHU216HW,2013-02-26 00:48:00,
2013-02-25 18:52:00,45.3,28.6,29.74,North,0,0.0,0.0,53,0.00,,,0.00,WUHU216HW,2013-02-26 00:52:00,
2013-02-25 19:01:00,45.3,28.6,29.75,North,0,0.0,0.0,53,0.00,,,0.00,WUHU216HW,2013-02-26 01:01:00,
2013-02-25 19:09:00,45.3,28.6,29.75,North,0,0.0,0.0,54,0.00,,,0.00,WUHU216HW,2013-02-26 01:09:00,
2013-02-25 19:23:00,45.3,28.6,29.76,North,0,0.0,0.0,54,0.00,,,0.00,WUHU216HW,2013-02-26 01:23:00,
2013-02-25 19:28:00,45.1,29.4,29.77,North,0,0.0,0.0,54,0.00,,,0.00,WUHU216HW,2013-02-26 01:28:00,
2013-02-25 19:33:00,45.1,29.4,29.77,North,0,0.0,0.0,54,0.00,,,0.00,WUHU216HW,2013-02-26 01:33:00,
2013-02-25 19:43:00,45.1,29.4,29.77,North,0,0.0,0.0,54,0.00,,,0.00,WUHU216HW,2013-02-26 01:43:00,
2013-02-25 19:45:00,45.1,29.4,29.77,North,0,0.0,0.0,54,0.00,,,0.00,WUHU216HW,2013-02-26 01:45:00,
2013-02-25 19:51:00,45.1,29.4,29.77,North,0,0.0,0.0,54,0.00,,,0.00,WUHU216HW,2013-02-26 01:51:00,
2013-02-25 19:59:00,44.9,29.7,29.77,North,0,0.0,0.0,55,0.00,,,0.00,WUHU216HW,2013-02-26 01:59:00,
2013-02-25 20:11:00,44.9,29.7,29.77,North,0,0.0,0.0,55,0.00,,,0.00,WUHU216HW,2013-02-26 02:11:00,
2013-02-25 20:20:00,44.7,29.5,29.77,North,0,0.0,0.0,55,0.00,,,0.00,WUHU216HW,2013-02-26 02:20:00,
2013-02-25 20:22:00,44.7,29.5,29.77,North,0,0.0,0.0,55,0.00,,,0.00,WUHU216HW,2013-02-26 02:22:00,
2013-02-25 20:27:00,44.7,29.5,29.78,North,0,0.0,0.0,55,0.00,,,0.00,WUHU216HW,2013-02-26 02:27:00,
2013-02-25 20:34:00,44.4,29.6,29.79,North,0,0.0,0.0,56,0.00,,,0.00,WUHU216HW,2013-02-26 02:34:00,
2013-02-25 20:41:00,44.9,30.1,29.79,North,0,0.0,0.0,56,0.00,,,0.00,WUHU216HW,2013-02-26 02:41:00,
2013-02-25 20:52:00,44.9,30.1,29.80,North,0,0.0,0.0,56,0.00,,,0.00,WUHU216HW,2013-02-26 02:52:00,
2013-02-25 21:01:00,45.3,30.0,29.80,North,0,0.0,0.0,55,0.00,,,0.00,WUHU216HW,2013-02-26 03:01:00,
2013-02-25 21:09:00,45.3,30.0,29.80,North,0,0.0,0.0,55,0.00,,,0.00,WUHU216HW,2013-02-26 03:09:00,
2013-02-25 21:20:00,45.5,30.2,29.80,North,0,0.0,0.0,55,0.00,,,0.00,WUHU216HW,2013-02-26 03:20:00,
2013-02-25 21:32:00,45.1,29.4,29.81,North,0,0.0,0.0,54,0.00,,,0.00,WUHU216HW,2013-02-26 03:32:00,
2013-02-25 21:39:00,44.9,29.2,29.81,North,0,0.0,0.0,54,0.00,,,0.00,WUHU216HW,2013-02-26 03:39:00,
2013-02-25 21:48:00,44.9,29.2,29.81,North,0,0.0,0.0,54,0.00,,,0.00,WUHU216HW,2013-02-26 03:48:00,
2013-02-25 21:55:00,44.7,29.1,29.81,North,0,0.0,0.0,54,0.00,,,0.00,WUHU216HW,2013-02-26 03:55:00,
2013-02-25 22:02:00,44.7,29.1,29.80,North,0,0.0,0.0,54,0.00,,,0.00,WUHU216HW,2013-02-26 04:02:00,
2013-02-25 22:09:00,44.7,29.1,29.80,North,0,0.0,0.0,54,0.00,,,0.00,WUHU216HW,2013-02-26 04:09:00,
2013-02-25 22:14:00,44.7,29.1,29.80,North,0,0.0,0.0,54,0.00,,,0.00,WUHU216HW,2013-02-26 04:14:00,
2013-02-25 22:21:00,44.7,29.1,29.79,North,0,0.0,0.0,54,0.00,,,0.00,WUHU216HW,2013-02-26 04:21:00,
2013-02-25 22:28:00,44.4,28.7,29.79,North,0,0.0,0.0,54,0.00,,,0.00,WUHU216HW,2013-02-26 04:28:00,
2013-02-25 22:37:00,44.4,28.7,29.79,North,0,0.0,0.0,54,0.00,,,0.00,WUHU216HW,2013-02-26 04:37:00,
2013-02-25 22:42:00,44.4,28.7,29.79,North,0,0.0,0.0,54,0.00,,,0.00,WUHU216HW,2013-02-26 04:42:00,
2013-02-25 22:52:00,44.4,28.7,29.80,North,0,0.0,0.0,54,0.00,,,0.00,WUHU216HW,2013-02-26 04:52:00,
2013-02-25 22:57:00,44.2,28.6,29.81,North,0,0.0,0.0,54,0.00,,,0.00,WUHU216HW,2013-02-26 04:57:00,
2013-02-25 23:02:00,44.2,28.6,29.81,North,0,0.0,0.0,54,0.00,,,0.00,WUHU216HW,2013-02-26 05:02:00,
2013-02-25 23:04:00,44.2,28.6,29.81,North,0,0.0,0.0,54,0.00,,,0.00,WUHU216HW,2013-02-26 05:04:00,
2013-02-25 23:09:00,44.2,28.6,29.82,North,0,0.0,0.0,54,0.00,,,0.00,WUHU216HW,2013-02-26 05:09:00,
2013-02-25 23:19:00,44.2,28.6,29.81,North,0,0.0,0.0,55,0.00,,,0.00,WUHU216HW,2013-02-26 05:19:00,
2013-02-25 23:27:00,43.8,28.7,29.82,North,0,0.0,0.0,55,0.00,,,0.00,WUHU216HW,2013-02-26 05:27:00,
2013-02-25 23:51:00,43.8,28.7,29.82,North,0,0.0,0.0,55,0.00,,,0.00,WUHU216HW,2013-02-26 05:51:00,
2013-02-25 23:59:00,43.3,28.6,29.82,North,0,0.0,0.0,56,0.00,,,0.00,WUHU216HW,2013-02-26 05:59:00,